createdAt,value
2024-01-24T00:01:36.902Z,97468.50
2024-01-24T00:04:04.952Z,97480.25
2024-01-24T00:06:32.537Z,97474.91
2024-01-24T00:09:00.057Z,97460.00
2024-01-24T00:11:27.566Z,97480.47
2024-01-24T00:13:56.487Z,97479.38
2024-01-24T00:16:24.108Z,97457.47
2024-01-24T00:18:51.782Z,97446.13
2024-01-24T00:21:19.354Z,97446.81
2024-01-24T00:23:46.883Z,97445.69
2024-01-24T00:26:14.366Z,97455.81
2024-01-24T00:28:41.910Z,97438.13
2024-01-24T00:31:10.752Z,97450.66
2024-01-24T00:33:38.340Z,97439.00
2024-01-24T00:36:06.257Z,97428.31
2024-01-24T00:38:33.764Z,97410.63
2024-01-24T00:41:01.257Z,97406.91
2024-01-24T00:43:28.786Z,97397.03
2024-01-24T00:45:57.187Z,97414.28
2024-01-24T00:48:26.296Z,97413.97
2024-01-24T00:50:54.415Z,97414.63
2024-01-24T00:53:22.756Z,97421.19
2024-01-24T00:55:50.524Z,97413.72
2024-01-24T00:58:18.037Z,97391.63
2024-01-24T01:00:45.578Z,97401.72
2024-01-24T01:03:13.479Z,97393.63
2024-01-24T01:05:42.391Z,97395.13
2024-01-24T01:08:10.052Z,97406.34
2024-01-24T01:10:37.568Z,97413.19
2024-01-24T01:13:05.433Z,97404.13
2024-01-24T01:15:33.014Z,97401.34
2024-01-24T01:18:00.620Z,97406.09
2024-01-24T01:20:28.138Z,97393.59
2024-01-24T01:22:56.965Z,97406.28
2024-01-24T01:25:24.484Z,97378.19
2024-01-24T01:27:52.236Z,97397.06
2024-01-24T01:30:19.935Z,97389.91
2024-01-24T01:32:47.561Z,97400.19
2024-01-24T01:35:15.494Z,97397.41
2024-01-24T01:37:42.996Z,97396.13
2024-01-24T01:40:12.569Z,97398.44
2024-01-24T01:42:44.713Z,97394.72
2024-01-24T01:45:12.238Z,97381.53
2024-01-24T01:47:40.193Z,97385.78
2024-01-24T01:50:11.323Z,97384.78
2024-01-24T01:52:39.665Z,97375.03
2024-01-24T01:55:09.215Z,97383.50
2024-01-24T01:57:40.978Z,97371.97
2024-01-24T02:00:11.086Z,97381.41
2024-01-24T02:02:38.967Z,97366.59
2024-01-24T02:05:07.846Z,97355.38
2024-01-24T02:07:35.476Z,97367.59
2024-01-24T02:10:03.408Z,97365.78
2024-01-24T02:12:30.957Z,97372.63
2024-01-24T02:14:59.876Z,97352.63
2024-01-24T02:17:27.418Z,97346.41
2024-01-24T02:19:55.029Z,97346.28
2024-01-24T02:22:22.813Z,97350.50
2024-01-24T02:24:51.695Z,97365.97
2024-01-24T02:27:19.302Z,97351.00
2024-01-24T02:29:46.836Z,97356.88
2024-01-24T02:32:14.369Z,97345.66
2024-01-24T02:34:42.008Z,97355.09
2024-01-24T02:37:09.665Z,97353.28
2024-01-24T02:39:37.234Z,97342.88
2024-01-24T02:42:06.720Z,97352.34
2024-01-24T02:44:34.472Z,97344.53
2024-01-24T02:47:02.012Z,97336.84
2024-01-24T02:49:29.636Z,97344.53
2024-01-24T02:52:02.546Z,97336.69
2024-01-24T02:54:30.164Z,97335.56
2024-01-24T02:56:57.701Z,97338.31
2024-01-24T02:59:27.142Z,97321.88
2024-01-24T03:01:54.865Z,97310.81
2024-01-24T03:04:22.685Z,97317.00
2024-01-24T03:06:50.378Z,97313.56
2024-01-24T03:09:18.104Z,97309.34
2024-01-24T03:11:45.625Z,97300.53
2024-01-24T03:14:13.091Z,97319.59
2024-01-24T03:16:41.948Z,97313.56
2024-01-24T03:19:09.557Z,97307.53
2024-01-24T03:21:37.192Z,97318.75
2024-01-24T03:24:05.012Z,97312.75
2024-01-24T03:26:32.572Z,97321.38
2024-01-24T03:29:00.146Z,97336.03
2024-01-24T03:31:27.686Z,97332.44
2024-01-24T03:33:56.634Z,97332.44
2024-01-24T03:36:24.312Z,97326.28
2024-01-24T03:38:51.833Z,97318.47
2024-01-24T03:41:19.410Z,97320.09
2024-01-24T03:43:46.971Z,97338.97
2024-01-24T03:46:14.501Z,97326.94
2024-01-24T03:48:42.071Z,97331.16
2024-01-24T03:51:12.369Z,97346.97
2024-01-24T03:53:39.919Z,97345.19
2024-01-24T03:56:08.128Z,97340.63
2024-01-24T03:58:37.462Z,97318.13
2024-01-24T04:01:05.317Z,97311.97
2024-01-24T04:03:33.061Z,97318.13
2024-01-24T04:06:00.979Z,97323.69
2024-01-24T04:08:29.915Z,97328.09
2024-01-24T04:10:57.400Z,97318.47
2024-01-24T04:13:26.579Z,97312.44
2024-01-24T04:15:54.125Z,97318.63
2024-01-24T04:18:21.719Z,97327.25
2024-01-24T04:20:49.362Z,97309.84
2024-01-24T04:23:16.894Z,97324.63
2024-01-24T04:25:45.729Z,97326.28
2024-01-24T04:28:13.443Z,97315.72
2024-01-24T04:30:41.086Z,97330.22
2024-01-24T04:33:08.744Z,97337.84
2024-01-24T04:35:36.353Z,97342.91
2024-01-24T04:38:04.725Z,97359.19
2024-01-24T04:40:32.269Z,97357.91
2024-01-24T04:43:01.242Z,97348.97
2024-01-24T04:45:28.808Z,97351.41
2024-01-24T04:47:56.890Z,97357.44
2024-01-24T04:50:25.089Z,97353.03
2024-01-24T04:52:52.892Z,97345.88
2024-01-24T04:55:20.416Z,97344.75
2024-01-24T04:57:47.926Z,97334.16
2024-01-24T05:00:17.575Z,97336.44
2024-01-24T05:02:45.433Z,97334.50
2024-01-24T05:05:13.001Z,97338.59
2024-01-24T05:07:40.976Z,97348.84
2024-01-24T05:10:09.929Z,97351.16
2024-01-24T05:12:37.572Z,97338.78
2024-01-24T05:15:05.914Z,97324.44
2024-01-24T05:17:34.813Z,97325.91
2024-01-24T05:20:02.938Z,97333.41
2024-01-24T05:22:30.478Z,97332.25
2024-01-24T05:24:58.097Z,97306.19
2024-01-24T05:27:25.941Z,97312.25
2024-01-24T05:29:53.452Z,97312.88
2024-01-24T05:32:20.945Z,97303.56
2024-01-24T05:34:50.628Z,97330.31
2024-01-24T05:37:18.239Z,97313.03
2024-01-24T05:39:45.788Z,97331.94
2024-01-24T05:42:13.564Z,97326.41
2024-01-24T05:44:41.238Z,97326.06
2024-01-24T05:47:08.738Z,97339.75
2024-01-24T05:49:37.531Z,97333.59
2024-01-24T05:52:07.384Z,97337.16
2024-01-24T05:54:35.177Z,97323.16
2024-01-24T05:57:02.650Z,97319.44
2024-01-24T05:59:30.757Z,97320.25
2024-01-24T06:01:58.357Z,97333.94
2024-01-24T06:04:26.169Z,97346.00
2024-01-24T06:06:56.135Z,97342.41
2024-01-24T06:09:25.239Z,97312.75
2024-01-24T06:11:53.227Z,97303.94
2024-01-24T06:14:22.663Z,97312.28
2024-01-24T06:16:50.183Z,97289.59
2024-01-24T06:19:18.161Z,97310.97
2024-01-24T06:21:55.958Z,97296.94
2024-01-24T06:24:25.813Z,97287.97
2024-01-24T06:26:54.301Z,97275.91
2024-01-24T06:30:14.878Z,97278.84
2024-01-24T06:32:09.337Z,97262.22
2024-01-24T06:34:36.918Z,97256.00
2024-01-24T06:37:04.552Z,97290.56
2024-01-24T06:39:33.465Z,97259.94
2024-01-24T06:42:01.021Z,97273.63
2024-01-24T06:44:28.540Z,97302.63
2024-01-24T06:46:56.571Z,97305.88
2024-01-24T06:49:24.246Z,97297.75
2024-01-24T06:51:52.668Z,97288.94
2024-01-24T06:54:20.313Z,97290.56
2024-01-24T06:56:49.464Z,97312.06
2024-01-24T06:59:17.129Z,97307.69
2024-01-24T07:01:44.941Z,97306.53
2024-01-24T07:04:12.720Z,97314.03
2024-01-24T07:06:40.919Z,97300.81
2024-01-24T07:09:08.492Z,97294.44
2024-01-24T07:11:36.005Z,97301.97
2024-01-24T07:14:05.348Z,97308.00
2024-01-24T07:16:32.842Z,97299.34
2024-01-24T07:19:00.557Z,97303.56
2024-01-24T07:21:28.124Z,97303.75
2024-01-24T07:23:55.641Z,97301.97
2024-01-24T07:26:23.147Z,97292.34
2024-01-24T07:28:50.700Z,97293.13
2024-01-24T07:31:20.545Z,97292.34
2024-01-24T07:33:49.317Z,97270.66
2024-01-24T07:36:16.954Z,97257.41
2024-01-24T07:38:44.611Z,97275.34
2024-01-24T07:41:12.119Z,97251.69
2024-01-24T07:43:39.641Z,97257.53
2024-01-24T07:46:07.496Z,97258.19
2024-01-24T07:48:36.722Z,97261.28
2024-01-24T07:51:05.533Z,97264.56
2024-01-24T07:53:33.419Z,97255.56
2024-01-24T07:56:10.984Z,97259.63
2024-01-24T07:58:48.929Z,97246.06
2024-01-24T08:01:18.535Z,97262.38
2024-01-24T08:03:49.678Z,97255.03
2024-01-24T08:06:18.826Z,97264.97
2024-01-24T08:08:46.743Z,97270.69
2024-01-24T08:11:14.420Z,97272.13
2024-01-24T08:13:42.279Z,97276.03
2024-01-24T08:16:10.493Z,97278.47
2024-01-24T08:18:38.235Z,97268.66
2024-01-24T08:21:09.044Z,97270.94
2024-01-24T08:23:43.094Z,97284.47
2024-01-24T08:26:17.903Z,97281.53
2024-01-24T08:28:45.396Z,97283.94
2024-01-24T08:31:14.421Z,97299.47
2024-01-24T08:33:42.300Z,97286.88
2024-01-24T08:36:11.342Z,97300.41
2024-01-24T08:38:38.868Z,97314.31
2024-01-24T08:41:06.478Z,97307.44
2024-01-24T08:43:34.028Z,97305.47
2024-01-24T08:46:01.584Z,97318.38
2024-01-24T08:48:30.299Z,97328.47
2024-01-24T08:50:57.980Z,97316.84
2024-01-24T08:53:26.898Z,97305.28
2024-01-24T08:55:54.412Z,97302.66
2024-01-24T08:58:22.004Z,97306.06
2024-01-24T09:00:49.725Z,97300.69
2024-01-24T09:03:19.976Z,97278.78
2024-01-24T09:05:47.827Z,97290.03
2024-01-24T09:08:15.425Z,97309.16
2024-01-24T09:10:44.597Z,97307.38
2024-01-24T09:13:12.198Z,97269.94
2024-01-24T09:15:39.979Z,97284.66
2024-01-24T09:18:08.720Z,97303.44
2024-01-24T09:20:36.535Z,97298.00
2024-01-24T09:23:04.212Z,97311.91
2024-01-24T09:25:31.845Z,97322.00
2024-01-24T09:28:00.800Z,97317.59
2024-01-24T09:30:28.580Z,97313.00
2024-01-24T09:32:56.546Z,97327.72
2024-01-24T09:35:24.305Z,97315.63
2024-01-24T09:37:51.827Z,97342.56
2024-01-24T09:40:19.660Z,97319.72
2024-01-24T09:42:47.693Z,97328.38
2024-01-24T09:45:19.056Z,97309.25
2024-01-24T09:47:48.419Z,97313.81
2024-01-24T09:50:16.697Z,97311.06
2024-01-24T09:52:47.178Z,97324.13
2024-01-24T09:55:19.871Z,97323.34
2024-01-24T09:57:47.697Z,97325.28
2024-01-24T10:00:17.821Z,97307.13
2024-01-24T10:02:47.682Z,97300.28
2024-01-24T10:05:18.475Z,97301.09
2024-01-24T10:07:46.870Z,97303.72
2024-01-24T10:10:16.398Z,97308.78
2024-01-24T10:12:45.031Z,97314.00
2024-01-24T10:15:13.505Z,97310.41
2024-01-24T10:17:43.718Z,97314.50
2024-01-24T10:20:13.753Z,97323.78
2024-01-24T10:22:43.239Z,97321.00
2024-01-24T10:25:12.253Z,97297.31
2024-01-24T10:27:40.260Z,97320.69
2024-01-24T10:30:12.469Z,97319.69
2024-01-24T10:32:40.687Z,97319.50
2024-01-24T10:35:11.202Z,97289.75
2024-01-24T10:37:39.197Z,97298.25
2024-01-24T10:40:12.750Z,97287.44
2024-01-24T10:42:42.870Z,97302.31
2024-01-24T10:45:11.983Z,97295.91
2024-01-24T10:47:41.532Z,97293.13
2024-01-24T10:50:12.159Z,97295.91
2024-01-24T10:52:41.637Z,97301.50
2024-01-24T10:55:12.801Z,97290.41
2024-01-24T10:57:42.192Z,97291.56
2024-01-24T11:00:12.043Z,97322.13
2024-01-24T11:02:42.282Z,97311.47
2024-01-24T11:05:19.521Z,97334.84
2024-01-24T11:07:55.087Z,97312.75
2024-01-24T11:10:26.667Z,97319.28
2024-01-24T11:12:54.715Z,97303.00
2024-01-24T11:15:23.679Z,97317.66
2024-01-24T11:18:26.419Z,97327.91
2024-01-24T11:20:57.424Z,97328.97
2024-01-24T11:23:41.794Z,97338.13
2024-01-24T11:26:11.310Z,97351.03
2024-01-24T11:28:39.366Z,97345.78
2024-01-24T11:31:08.283Z,97348.25
2024-01-24T11:33:36.300Z,97356.25
2024-01-24T11:36:13.955Z,97362.31
2024-01-24T11:38:41.507Z,97353.13
2024-01-24T11:41:24.908Z,97349.16
2024-01-24T11:43:52.512Z,97341.59
2024-01-24T11:46:22.507Z,97349.28
2024-01-24T11:48:50.503Z,97328.34
2024-01-24T11:51:19.837Z,97335.38
2024-01-24T11:53:47.513Z,97341.59
2024-01-24T11:56:16.482Z,97348.34
2024-01-24T11:58:44.358Z,97364.56
2024-01-24T12:01:13.716Z,97357.75
2024-01-24T12:03:48.020Z,97368.00
2024-01-24T12:06:15.739Z,97363.00
2024-01-24T12:08:48.196Z,97357.97
2024-01-24T12:11:18.452Z,97372.75
2024-01-24T12:13:47.100Z,97370.66
2024-01-24T12:16:14.741Z,97380.63
2024-01-24T12:18:43.550Z,97375.25
2024-01-24T12:21:12.530Z,97379.16
2024-01-24T12:23:39.554Z,97368.25
2024-01-24T12:26:09.109Z,97372.84
2024-01-24T12:28:36.897Z,97351.13
2024-01-24T12:31:06.304Z,97370.56
2024-01-24T12:33:36.618Z,97380.03
2024-01-24T12:36:05.799Z,97398.50
2024-01-24T12:38:35.852Z,97389.84
2024-01-24T12:41:03.632Z,97389.84
2024-01-24T12:43:33.269Z,97377.94
2024-01-24T12:46:06.615Z,97393.44
2024-01-24T12:48:34.501Z,97409.59
2024-01-24T12:51:02.297Z,97382.66
2024-01-24T12:53:30.138Z,97383.47
2024-01-24T12:55:57.777Z,97382.81
2024-01-24T12:58:25.408Z,97363.53
2024-01-24T13:00:55.581Z,97363.34
2024-01-24T13:03:24.295Z,97376.94
2024-01-24T13:05:52.882Z,97369.09
2024-01-24T13:08:21.767Z,97363.22
2024-01-24T13:10:50.124Z,97379.56
2024-01-24T13:13:18.175Z,97366.47
2024-01-24T13:15:46.086Z,97369.75
2024-01-24T13:18:15.135Z,97353.91
2024-01-24T13:20:42.820Z,97351.28
2024-01-24T13:23:10.360Z,97362.53
2024-01-24T13:25:37.975Z,97352.91
2024-01-24T13:28:06.737Z,97341.13
2024-01-24T13:30:35.561Z,97351.09
2024-01-24T13:33:03.291Z,97366.25
2024-01-24T13:35:32.626Z,97354.84
2024-01-24T13:38:00.659Z,97359.06
2024-01-24T13:40:28.234Z,97357.91
2024-01-24T13:42:55.866Z,97356.13
2024-01-24T13:45:24.928Z,97370.97
2024-01-24T13:47:52.512Z,97359.69
2024-01-24T13:50:20.193Z,97358.09
2024-01-24T13:52:49.112Z,97375.59
2024-01-24T13:55:16.727Z,97383.59
2024-01-24T13:57:45.185Z,97390.78
2024-01-24T14:00:15.286Z,97400.59
2024-01-24T14:02:44.186Z,97398.97
2024-01-24T14:05:12.124Z,97389.50
2024-01-24T14:07:43.638Z,97397.66
2024-01-24T14:10:13.963Z,97407.28
2024-01-24T14:12:41.829Z,97396.00
2024-01-24T14:15:19.651Z,97416.13
2024-01-24T14:17:55.885Z,97401.75
2024-01-24T14:20:23.637Z,97383.75
2024-01-24T14:22:51.276Z,97394.50
2024-01-24T14:25:20.941Z,97399.25
2024-01-24T14:27:48.524Z,97402.16
2024-01-24T14:30:16.328Z,97403.44
2024-01-24T14:32:43.921Z,97406.34
2024-01-24T14:35:16.224Z,97414.84
2024-01-24T14:37:43.978Z,97425.31
2024-01-24T14:40:12.657Z,97434.16
2024-01-24T14:42:41.701Z,97439.38
2024-01-24T14:45:10.363Z,97437.09
2024-01-24T14:47:38.104Z,97457.72
2024-01-24T14:50:06.777Z,97473.72
2024-01-24T14:52:34.513Z,97458.03
2024-01-24T14:55:03.576Z,97469.66
2024-01-24T14:57:33.084Z,97471.16
2024-01-24T15:00:05.797Z,97474.44
2024-01-24T15:02:34.274Z,97494.88
2024-01-24T15:05:03.190Z,97491.44
2024-01-24T15:07:30.840Z,97510.09
2024-01-24T15:09:58.461Z,97506.16
2024-01-24T15:12:28.269Z,97496.38
2024-01-24T15:14:55.932Z,97498.34
2024-01-24T15:17:24.839Z,97493.59
2024-01-24T15:19:52.571Z,97489.69
2024-01-24T15:22:22.477Z,97497.06
2024-01-24T15:24:50.993Z,97494.13
2024-01-24T15:27:18.723Z,97511.94
2024-01-24T15:29:46.570Z,97517.97
2024-01-24T15:32:14.116Z,97520.25
2024-01-24T15:34:43.353Z,97532.00
2024-01-24T15:37:11.226Z,97537.72
2024-01-24T15:39:39.519Z,97544.41
2024-01-24T15:42:12.174Z,97557.78
2024-01-24T15:44:39.659Z,97566.78
2024-01-24T15:47:08.857Z,97564.66
2024-01-24T15:49:36.524Z,97562.19
2024-01-24T15:52:06.103Z,97557.13
2024-01-24T15:54:33.771Z,97554.50
2024-01-24T15:57:01.280Z,97562.50
2024-01-24T15:59:28.952Z,97567.72
2024-01-24T16:01:56.617Z,97569.66
2024-01-24T16:04:24.479Z,97572.75
2024-01-24T16:06:53.650Z,97587.63
2024-01-24T16:09:22.714Z,97598.22
2024-01-24T16:11:50.290Z,97595.94
2024-01-24T16:14:19.017Z,97598.53
2024-01-24T16:16:47.208Z,97610.13
2024-01-24T16:19:14.855Z,97622.66
2024-01-24T16:21:44.571Z,97617.75
2024-01-24T16:24:12.141Z,97619.38
2024-01-24T16:26:40.978Z,97629.53
2024-01-24T16:29:08.448Z,97636.38
2024-01-24T16:31:35.918Z,97654.63
2024-01-24T16:34:04.017Z,97650.41
2024-01-24T16:36:31.852Z,97654.31
2024-01-24T16:38:59.420Z,97655.25
2024-01-24T16:41:27.043Z,97647.44
2024-01-24T16:43:56.029Z,97659.38
2024-01-24T16:46:23.634Z,97659.19
2024-01-24T16:48:51.516Z,97668.50
2024-01-24T16:51:19.350Z,97666.56
2024-01-24T16:53:46.920Z,97657.75
2024-01-24T16:56:14.524Z,97668.19
2024-01-24T16:58:42.577Z,97667.41
2024-01-24T17:01:11.636Z,97672.63
2024-01-24T17:03:39.543Z,97670.16
2024-01-24T17:06:09.053Z,97678.78
2024-01-24T17:08:37.595Z,97681.41
2024-01-24T17:11:05.611Z,97685.81
2024-01-24T17:13:33.195Z,97681.72
2024-01-24T17:16:02.844Z,97687.75
2024-01-24T17:18:31.984Z,97699.81
2024-01-24T17:20:59.598Z,97690.53
2024-01-24T17:23:27.129Z,97686.28
2024-01-24T17:25:54.750Z,97682.34
2024-01-24T17:28:22.323Z,97688.72
2024-01-24T17:30:49.930Z,97689.84
2024-01-24T17:33:18.893Z,97699.91
2024-01-24T17:35:47.913Z,97688.31
2024-01-24T17:38:15.617Z,97690.41
2024-01-24T17:40:43.139Z,97684.53
2024-01-24T17:43:11.306Z,97680.72
2024-01-24T17:45:38.998Z,97683.50
2024-01-24T17:48:07.893Z,97678.44
2024-01-24T17:50:37.218Z,97680.53
2024-01-24T17:53:06.610Z,97678.25
2024-01-24T17:55:34.409Z,97695.03
2024-01-24T17:58:02.155Z,97690.75
2024-01-24T18:00:29.829Z,97695.97
2024-01-24T18:02:57.729Z,97695.16
2024-01-24T18:05:25.440Z,97696.97
2024-01-24T18:07:53.187Z,97699.72
2024-01-24T18:10:22.492Z,97707.84
2024-01-24T18:12:50.088Z,97710.59
2024-01-24T18:15:18.193Z,97702.94
2024-01-24T18:17:45.834Z,97699.63
2024-01-24T18:20:13.668Z,97709.38
2024-01-24T18:22:42.953Z,97698.31
2024-01-24T18:25:10.536Z,97702.53
2024-01-24T18:27:39.522Z,97699.28
2024-01-24T18:30:13.784Z,97700.25
2024-01-24T18:32:41.806Z,97699.59
2024-01-24T18:35:10.908Z,97705.09
2024-01-24T18:37:39.248Z,97714.84
2024-01-24T18:40:10.752Z,97710.63
2024-01-24T18:42:41.571Z,97712.41
2024-01-24T18:45:13.023Z,97716.78
2024-01-24T18:47:41.669Z,97719.56
2024-01-24T18:50:11.036Z,97723.44
2024-01-24T18:52:39.581Z,97728.13
2024-01-24T18:55:11.647Z,97733.66
2024-01-24T18:57:40.884Z,97736.41
2024-01-24T19:00:10.102Z,97734.91
2024-01-24T19:02:38.860Z,97729.03
2024-01-24T19:05:10.195Z,97720.69
2024-01-24T19:07:42.297Z,97729.63
2024-01-24T19:10:11.519Z,97727.31
2024-01-24T19:12:43.096Z,97728.28
2024-01-24T19:15:18.979Z,97736.28
2024-01-24T19:17:49.716Z,97732.16
2024-01-24T19:20:19.072Z,97728.22
2024-01-24T19:22:46.956Z,97725.09
2024-01-24T19:25:14.598Z,97723.75
2024-01-24T19:27:43.988Z,97740.50
2024-01-24T19:30:12.738Z,97740.78
2024-01-24T19:32:41.647Z,97739.28
2024-01-24T19:35:10.651Z,97742.06
2024-01-24T19:37:42.791Z,97750.16
2024-01-24T19:40:21.029Z,97750.16
2024-01-24T19:42:49.996Z,97752.06
2024-01-24T19:45:17.820Z,97754.00
2024-01-24T19:47:46.334Z,97756.91
2024-01-24T19:50:13.936Z,97745.16
2024-01-24T19:52:41.457Z,97740.25
2024-01-24T19:55:10.261Z,97751.63
2024-01-24T19:57:37.969Z,97766.44
2024-01-24T20:00:12.502Z,97766.69
2024-01-24T20:02:40.577Z,97769.47
2024-01-24T20:07:46.668Z,97778.81
2024-01-24T20:10:16.798Z,97782.38
2024-01-24T21:44:54.890Z,97762.94
2024-01-24T21:47:22.408Z,97759.53
2024-01-24T21:49:50.289Z,97769.94
2024-01-24T21:52:18.691Z,97758.03
2024-01-24T21:54:50.684Z,97760.94
2024-01-24T21:57:18.841Z,97755.75
2024-01-24T21:59:46.678Z,97742.06
2024-01-24T22:02:15.823Z,97750.00
2024-01-24T22:04:44.140Z,97747.53
2024-01-24T22:07:12.339Z,97744.25
2024-01-24T22:09:40.085Z,97739.84
2024-01-24T22:12:10.071Z,97742.63
2024-01-24T22:14:37.664Z,97747.00
2024-01-24T22:17:05.583Z,97744.53
2024-01-24T22:19:34.586Z,97754.94
2024-01-24T22:22:02.387Z,97760.00
2024-01-24T22:24:30.100Z,97755.63
2024-01-24T22:26:57.834Z,97756.31
2024-01-24T22:29:25.457Z,97757.94
2024-01-24T22:31:53.067Z,97754.38
2024-01-24T22:34:20.804Z,97758.75
2024-01-24T22:36:49.920Z,97764.09
2024-01-24T22:39:17.480Z,97765.72
2024-01-24T22:41:45.037Z,97764.78
2024-01-24T22:44:12.805Z,97764.50
2024-01-24T22:46:41.262Z,97764.34
2024-01-24T22:49:09.237Z,97768.44
2024-01-24T22:51:36.995Z,97767.47
2024-01-24T22:54:07.132Z,97768.31
2024-01-24T22:56:34.686Z,97767.22
2024-01-24T22:59:02.205Z,97764.31
2024-01-24T23:01:29.876Z,97762.38
2024-01-24T23:03:58.044Z,97766.66
2024-01-24T23:06:25.768Z,97762.25
2024-01-24T23:08:53.353Z,97766.34
2024-01-24T23:11:22.460Z,97767.16
2024-01-24T23:13:50.062Z,97769.34
2024-01-24T23:16:17.828Z,97766.59
2024-01-24T23:18:45.586Z,97762.22
2024-01-24T23:21:13.218Z,97755.06
2024-01-24T23:23:41.329Z,97757.69
2024-01-24T23:26:08.855Z,97756.72
2024-01-24T23:28:37.862Z,97740.28
2024-01-24T23:31:05.918Z,97739.47
2024-01-24T23:33:35.671Z,97741.13
2024-01-24T23:36:05.029Z,97735.06
2024-01-24T23:38:32.736Z,97729.88
2024-01-24T23:41:00.438Z,97737.53
2024-01-24T23:43:28.029Z,97742.75
2024-01-24T23:45:57.137Z,97744.66
2024-01-24T23:48:24.986Z,97741.13
2024-01-24T23:50:52.934Z,97747.28
2024-01-24T23:53:20.598Z,97751.53
2024-01-24T23:55:48.747Z,97749.88
2024-01-24T23:58:16.455Z,97748.25
